SAF weather

Santa Fe Municipal Airport
Santa Fe, New Mexico, United States

Public forecast

Using degrees Fahrenheit for public forecast. Weather courtesy of forecast.io.

METAR (pilot weather report)

Report is more than 2 hours old.

Retrieved 2019/04/23 20:53 UTC (5 hours ago):

KSAF 232053Z VRB06KT 10SM BKN032 OVC046 11/06 A3012 RMK AO2 RAB16E25 SLP151 P0000 60001 T01110056 56008

TAF (pilot weather forecast)

Forecast is more than 6 hours old.

Retrieved 2019/04/23 18:33 UTC (7 hours ago):

TAF KSAF 231730Z 2318/2418 13008KT P6SM VCSH SCT015 BKN040 TEMPO 2319/2323 12010KT -SHRA OVC035 FM240300 21007KT P6SM BKN040 FM240800 33004KT P6SM SCT250 FM241200 36011KT P6SM FEW250